createdAt,value
2019-06-08T00:01:02.602Z,14.10
2019-06-08T00:03:33.834Z,14.00
2019-06-08T00:06:03.764Z,14.00
2019-06-08T00:08:33.711Z,14.00
2019-06-08T00:11:03.855Z,14.00
2019-06-08T00:13:33.911Z,13.90
2019-06-08T00:16:03.813Z,13.90
2019-06-08T00:18:33.502Z,13.80
2019-06-08T00:21:03.194Z,13.80
2019-06-08T00:23:32.736Z,13.70
2019-06-08T00:26:02.372Z,13.70
2019-06-08T00:28:32.032Z,13.70
2019-06-08T00:31:21.768Z,13.60
2019-06-08T00:34:08.340Z,13.60
2019-06-08T00:37:01.045Z,13.60
2019-06-08T00:39:36.251Z,13.60
2019-06-08T00:42:05.886Z,13.50
2019-06-08T00:44:35.502Z,13.50
2019-06-08T00:47:05.200Z,13.50
2019-06-08T00:49:34.871Z,13.50
2019-06-08T00:52:04.526Z,13.40
2019-06-08T00:54:34.121Z,13.40
2019-06-08T00:57:30.156Z,13.30
2019-06-08T01:00:26.918Z,13.40
2019-06-08T01:03:26.036Z,13.40
2019-06-08T01:06:23.283Z,13.40
2019-06-08T01:09:20.284Z,13.50
2019-06-08T01:12:18.652Z,13.50
2019-06-08T01:15:05.077Z,13.50
2019-06-08T01:18:02.544Z,13.50
2019-06-08T01:20:47.793Z,13.50
2019-06-08T01:23:38.848Z,13.60
2019-06-08T01:26:08.388Z,13.50
2019-06-08T01:28:39.371Z,13.40
2019-06-08T01:31:09.474Z,13.40
2019-06-08T01:33:39.392Z,13.40
2019-06-08T01:36:09.521Z,13.30
2019-06-08T01:38:39.514Z,13.40
2019-06-08T01:41:10.455Z,13.40
2019-06-08T01:43:40.132Z,13.50
2019-06-08T01:46:10.101Z,13.40
2019-06-08T01:48:39.782Z,13.40
2019-06-08T01:51:09.442Z,13.40
2019-06-08T01:53:39.115Z,13.40
2019-06-08T01:56:08.792Z,13.40
2019-06-08T01:58:38.484Z,13.40
2019-06-08T02:01:08.157Z,13.40
2019-06-08T02:03:37.660Z,13.40
2019-06-08T02:06:07.351Z,13.40
2019-06-08T02:08:36.986Z,13.40
2019-06-08T02:11:06.684Z,13.50
2019-06-08T02:13:36.409Z,13.50
2019-06-08T02:16:06.093Z,13.50
2019-06-08T02:18:47.341Z,13.50
2019-06-08T02:21:08.136Z,13.50
2019-06-08T02:23:37.826Z,13.40
2019-06-08T02:26:07.497Z,13.50
2019-06-08T02:28:37.174Z,13.50
2019-06-08T02:31:06.842Z,13.50
2019-06-08T02:33:40.504Z,13.50
2019-06-08T02:36:10.324Z,13.50
2019-06-08T02:38:40.060Z,13.50
2019-06-08T02:41:09.705Z,13.60
2019-06-08T02:43:40.339Z,13.60
2019-06-08T02:46:10.144Z,13.70
2019-06-08T02:49:01.876Z,13.70
2019-06-08T02:51:11.508Z,13.80
2019-06-08T02:53:42.059Z,13.80
2019-06-08T02:56:14.096Z,13.80
2019-06-08T02:58:44.477Z,13.90
2019-06-08T03:01:15.363Z,14.00
2019-06-08T03:03:45.375Z,14.00
2019-06-08T03:06:15.524Z,14.00
2019-06-08T03:08:48.761Z,14.00
2019-06-08T03:11:20.860Z,14.00
2019-06-08T03:13:52.659Z,14.00
2019-06-08T03:16:22.362Z,14.00
2019-06-08T03:18:52.268Z,14.00
2019-06-08T03:21:22.003Z,14.00
2019-06-08T03:23:52.229Z,14.00
2019-06-08T03:26:22.185Z,13.90
2019-06-08T03:28:52.196Z,13.90
2019-06-08T03:31:22.027Z,13.90
2019-06-08T03:33:55.640Z,13.90
2019-06-08T03:36:24.831Z,13.90
2019-06-08T03:38:56.340Z,14.00
2019-06-08T03:41:26.066Z,14.00
2019-06-08T03:43:55.871Z,14.00
2019-06-08T03:46:25.962Z,14.00
2019-06-08T03:48:55.843Z,14.00
2019-06-08T03:51:25.663Z,14.00
2019-06-08T03:53:55.426Z,14.00
2019-06-08T03:56:25.170Z,14.10
2019-06-08T03:58:54.889Z,14.10
2019-06-08T04:01:24.576Z,14.10
2019-06-08T04:03:54.202Z,14.10
2019-06-08T04:06:23.812Z,14.20
2019-06-08T04:08:53.512Z,14.20
2019-06-08T04:11:23.120Z,14.20
2019-06-08T04:13:52.801Z,14.20
2019-06-08T04:16:23.469Z,14.20
2019-06-08T04:18:53.070Z,14.20
2019-06-08T04:21:22.591Z,14.20
2019-06-08T04:23:52.182Z,14.20
2019-06-08T04:26:21.736Z,14.30
2019-06-08T04:28:51.429Z,14.30
2019-06-08T04:31:21.114Z,14.30
2019-06-08T04:33:50.946Z,14.20
2019-06-08T04:36:20.757Z,14.30
2019-06-08T04:38:50.395Z,14.30
2019-06-08T04:41:20.069Z,14.30
2019-06-08T04:43:50.029Z,14.30
2019-06-08T04:46:19.727Z,14.30
2019-06-08T04:48:50.176Z,14.30
2019-06-08T04:51:19.939Z,14.30
2019-06-08T04:53:49.855Z,14.30
2019-06-08T04:56:20.074Z,14.40
2019-06-08T04:58:51.451Z,14.40
2019-06-08T05:01:21.329Z,14.40
2019-06-08T05:03:51.050Z,14.40
2019-06-08T05:06:20.741Z,14.50
2019-06-08T05:08:50.315Z,14.50
2019-06-08T05:11:20.027Z,14.50
2019-06-08T05:13:49.923Z,14.50
2019-06-08T05:16:19.701Z,14.50
2019-06-08T05:18:49.842Z,14.50
2019-06-08T05:21:19.786Z,14.60
2019-06-08T05:23:58.313Z,14.50
2019-06-08T05:26:21.650Z,14.50
2019-06-08T05:28:51.791Z,14.60
2019-06-08T05:31:21.402Z,14.50
2019-06-08T05:33:51.325Z,14.50
2019-06-08T05:36:20.976Z,14.50
2019-06-08T05:38:50.686Z,14.50
2019-06-08T05:41:23.808Z,14.50
2019-06-08T05:43:51.490Z,14.50
2019-06-08T05:46:21.179Z,14.50
2019-06-08T05:48:50.880Z,14.50
2019-06-08T05:51:20.504Z,14.50
2019-06-08T05:53:50.319Z,14.50
2019-06-08T05:56:20.276Z,14.60
2019-06-08T05:58:50.355Z,14.60
2019-06-08T06:01:25.912Z,14.60
2019-06-08T06:04:11.013Z,14.50
2019-06-08T06:06:50.819Z,14.50
2019-06-08T06:09:20.691Z,14.50
2019-06-08T06:11:51.158Z,14.60
2019-06-08T06:14:21.500Z,14.60
2019-06-08T06:16:51.542Z,14.60
2019-06-08T06:19:21.274Z,14.60
2019-06-08T06:21:51.579Z,14.60
2019-06-08T06:24:21.472Z,14.60
2019-06-08T06:26:51.689Z,14.60
2019-06-08T06:29:21.428Z,14.60
2019-06-08T06:31:52.130Z,14.60
2019-06-08T06:36:52.022Z,14.70
2019-06-08T06:39:23.409Z,14.70
2019-06-08T06:41:53.299Z,14.70
2019-06-08T06:44:23.453Z,14.80
2019-06-08T06:46:53.490Z,14.80
2019-06-08T06:49:24.482Z,14.90
2019-06-08T06:51:54.392Z,14.90
2019-06-08T06:54:24.258Z,14.90
2019-06-08T06:56:54.147Z,15.00
2019-06-08T06:59:23.774Z,15.00
2019-06-08T07:01:57.308Z,15.10
2019-06-08T07:04:33.510Z,15.20
2019-06-08T07:07:04.210Z,15.20
2019-06-08T07:09:33.869Z,15.30
2019-06-08T07:12:03.579Z,15.30
2019-06-08T07:14:33.291Z,15.40
2019-06-08T07:17:02.907Z,15.50
2019-06-08T07:19:32.540Z,15.50
2019-06-08T07:22:02.524Z,15.60
2019-06-08T07:24:32.274Z,15.70
2019-06-08T07:27:02.612Z,15.70
2019-06-08T07:29:33.223Z,15.70
2019-06-08T07:32:03.427Z,15.80
2019-06-08T07:34:33.578Z,15.80
2019-06-08T07:37:03.532Z,15.90
2019-06-08T07:39:33.693Z,15.80
2019-06-08T07:42:04.033Z,15.80
2019-06-08T07:44:34.364Z,15.80
2019-06-08T07:47:04.702Z,15.90
2019-06-08T07:49:35.043Z,15.90
2019-06-08T07:52:10.245Z,15.90
2019-06-08T07:54:36.274Z,15.90
2019-06-08T07:57:06.184Z,15.90
2019-06-08T07:59:36.126Z,15.90
2019-06-08T08:02:06.487Z,15.90
2019-06-08T08:04:36.683Z,15.90
2019-06-08T08:07:07.044Z,15.90
2019-06-08T08:09:37.079Z,15.90
2019-06-08T08:12:07.483Z,15.90
2019-06-08T08:14:37.492Z,15.90
2019-06-08T08:17:07.665Z,15.90
2019-06-08T08:19:37.374Z,15.90
2019-06-08T08:22:22.291Z,15.90
2019-06-08T08:24:39.123Z,16.00
2019-06-08T08:27:09.326Z,16.00
2019-06-08T08:29:39.663Z,16.10
2019-06-08T08:32:10.068Z,16.10
2019-06-08T08:34:40.033Z,16.10
2019-06-08T08:37:11.383Z,16.10
2019-06-08T08:39:41.313Z,16.10
2019-06-08T08:42:11.988Z,16.20
2019-06-08T08:44:41.867Z,16.20
2019-06-08T08:47:11.987Z,16.20
2019-06-08T08:49:41.889Z,16.30
2019-06-08T08:52:12.418Z,16.20
2019-06-08T08:54:42.886Z,16.30
2019-06-08T08:57:13.910Z,16.20
2019-06-08T08:59:43.787Z,16.30
2019-06-08T09:02:13.547Z,16.20
2019-06-08T09:04:53.495Z,16.20
2019-06-08T09:07:24.278Z,16.20
2019-06-08T09:09:55.424Z,16.30
2019-06-08T09:12:27.591Z,16.20
2019-06-08T09:15:00.375Z,16.30
2019-06-08T09:17:28.248Z,16.30
2019-06-08T09:20:03.304Z,16.30
2019-06-08T09:22:31.890Z,16.40
2019-06-08T09:25:04.313Z,16.40
2019-06-08T09:27:32.816Z,16.40
2019-06-08T09:30:09.139Z,16.40
2019-06-08T09:32:40.188Z,16.40
2019-06-08T09:35:13.431Z,16.40
2019-06-08T09:37:43.209Z,16.50
2019-06-08T09:40:13.633Z,16.40
2019-06-08T09:42:43.877Z,16.50
2019-06-08T09:45:14.474Z,16.50
2019-06-08T09:47:45.021Z,16.40
2019-06-08T09:50:18.220Z,16.40
2019-06-08T09:52:47.882Z,16.40
2019-06-08T09:55:18.739Z,16.50
2019-06-08T09:57:49.154Z,16.60
2019-06-08T10:00:25.242Z,16.60
2019-06-08T10:02:54.627Z,16.70
2019-06-08T10:05:27.613Z,16.70
2019-06-08T10:08:00.491Z,16.80
2019-06-08T10:10:28.954Z,16.80
2019-06-08T10:13:01.301Z,16.80
2019-06-08T10:15:30.099Z,16.80
2019-06-08T10:18:01.007Z,16.80
2019-06-08T10:20:31.057Z,16.90
2019-06-08T10:23:03.236Z,16.90
